Time;durP1;ratioP1;P1;durP2;ratioP2;P2;SDS_P1;SDS_P2;PMS_P1;PMS_P2;Temp;Humidity;BMP_temperature;BMP_pressure;BME280_temperature;BME280_humidity;BME280_pressure;Samples;Min_cycle;Max_cycle;Signal;HPM_P1;HPM_P2
2022/04/19 00:00:39;;;;;;;7.22;5.15;;;7.30;99.90;;;;;;5114199;28;20065;-76
2022/04/19 00:03:06;;;;;;;8.18;5.78;;;7.30;99.90;;;;;;5115448;28;20048;-76
2022/04/19 00:05:33;;;;;;;8.05;5.50;;;7.20;99.90;;;;;;5114726;28;20122;-76
2022/04/19 00:08:10;;;;;;;11.30;6.40;;;7.20;99.90;;;;;;5114964;28;20486;-76
2022/04/19 00:10:36;;;;;;;10.13;5.82;;;7.20;99.90;;;;;;5116466;28;20162;-76
2022/04/19 00:13:04;;;;;;;8.00;5.35;;;7.10;99.90;;;;;;5114560;28;20070;-76
2022/04/19 00:15:30;;;;;;;7.72;5.63;;;7.10;99.90;;;;;;5096281;28;20055;-76
2022/04/19 00:17:57;;;;;;;7.68;5.60;;;7.10;99.90;;;;;;5114997;28;20043;-76
2022/04/19 00:20:24;;;;;;;7.15;5.05;;;7.00;99.90;;;;;;5114776;28;20111;-76
2022/04/19 00:22:51;;;;;;;7.05;5.22;;;7.00;99.90;;;;;;5113661;28;20394;-76
2022/04/19 00:25:17;;;;;;;7.95;5.20;;;6.90;99.90;;;;;;5114496;28;20360;-76
2022/04/19 00:27:43;;;;;;;9.50;5.82;;;6.90;99.90;;;;;;5114310;28;20054;-76
2022/04/19 00:30:10;;;;;;;8.15;6.65;;;6.90;99.90;;;;;;5114835;28;20396;-76
2022/04/19 00:32:37;;;;;;;7.45;5.57;;;6.90;99.90;;;;;;5115805;28;20047;-76
2022/04/19 00:35:07;;;;;;;8.13;5.68;;;6.90;99.90;;;;;;5115482;28;20043;-76
2022/04/19 00:37:34;;;;;;;7.80;5.47;;;6.90;99.90;;;;;;5113602;28;20059;-76
2022/04/19 00:40:02;;;;;;;7.30;5.63;;;6.80;99.90;;;;;;5115449;28;20039;-76
2022/04/19 00:42:32;;;;;;;7.78;5.53;;;6.80;99.90;;;;;;5113413;28;20043;-76
2022/04/19 00:45:03;;;;;;;10.43;5.57;;;6.80;99.90;;;;;;5113777;28;20043;-76
2022/04/19 00:47:32;;;;;;;7.57;5.47;;;6.70;99.90;;;;;;5115461;28;20078;-76
2022/04/19 00:50:03;;;;;;;8.32;5.80;;;6.70;99.90;;;;;;5113955;28;20081;-76
2022/04/19 00:52:31;;;;;;;7.57;5.68;;;6.70;99.90;;;;;;5114274;28;20048;-76
2022/04/19 00:54:58;;;;;;;6.68;5.60;;;6.70;99.90;;;;;;5113869;28;20059;-76
2022/04/19 00:57:24;;;;;;;9.50;5.55;;;6.70;99.90;;;;;;5112754;28;20051;-76
2022/04/19 00:59:54;;;;;;;7.10;5.40;;;6.70;99.90;;;;;;5114940;28;20043;-76
2022/04/19 01:02:20;;;;;;;13.65;5.57;;;6.60;99.90;;;;;;5097163;28;20050;-76
2022/04/19 01:04:46;;;;;;;7.53;5.38;;;6.60;99.90;;;;;;5112855;28;20509;-76
2022/04/19 01:07:12;;;;;;;8.20;4.97;;;6.60;99.90;;;;;;5115111;28;20090;-76
2022/04/19 01:09:38;;;;;;;10.52;6.15;;;6.60;99.90;;;;;;5113687;28;20051;-76
2022/04/19 01:14:55;;;;;;;11.45;5.43;;;6.60;99.90;;;;;;5114513;28;20075;-76
2022/04/19 01:17:22;;;;;;;12.27;6.90;;;6.60;99.90;;;;;;5113398;28;20490;-76
2022/04/19 01:19:47;;;;;;;11.82;5.93;;;6.50;99.90;;;;;;5111744;28;20509;-76
2022/04/19 01:22:13;;;;;;;7.85;5.55;;;6.50;99.90;;;;;;5114619;28;20028;-76
2022/04/19 01:24:42;;;;;;;7.50;5.43;;;6.50;99.90;;;;;;5114067;28;20043;-76
2022/04/19 01:27:09;;;;;;;8.02;5.15;;;6.50;99.90;;;;;;5096776;28;20043;-76
2022/04/19 01:29:36;;;;;;;9.32;5.63;;;6.50;99.90;;;;;;5113121;28;20062;-76
2022/04/19 01:32:03;;;;;;;9.93;5.50;;;6.40;99.90;;;;;;5112521;28;20066;-76
2022/04/19 01:34:29;;;;;;;9.45;5.95;;;6.40;99.90;;;;;;5112804;28;20050;-76
2022/04/19 01:36:55;;;;;;;10.65;5.82;;;6.30;99.90;;;;;;5114266;28;20048;-76
2022/04/19 01:40:16;;;;;;;9.13;5.82;;;6.30;99.90;;;;;;5112041;28;20441;-76
2022/04/19 01:42:07;;;;;;;9.00;5.68;;;6.30;99.90;;;;;;5093785;28;20043;-76
2022/04/19 01:44:33;;;;;;;8.80;5.70;;;6.30;99.90;;;;;;5095344;28;20058;-76
2022/04/19 01:47:07;;;;;;;11.25;4.90;;;6.30;99.90;;;;;;5112264;28;20451;-76
2022/04/19 01:49:35;;;;;;;8.48;5.03;;;6.30;99.90;;;;;;5113635;28;20040;-77
2022/04/19 01:52:08;;;;;;;7.55;5.32;;;6.20;99.90;;;;;;5112949;28;20076;-76
2022/04/19 01:54:34;;;;;;;7.40;6.05;;;6.20;99.90;;;;;;5096027;27;20131;-76
2022/04/19 01:56:59;;;;;;;9.43;6.00;;;6.20;99.90;;;;;;5112744;28;20119;-76
2022/04/19 01:59:25;;;;;;;9.20;6.30;;;6.10;99.90;;;;;;5112782;28;20566;-76
2022/04/19 02:01:51;;;;;;;8.05;5.85;;;6.10;99.90;;;;;;5111512;28;20054;-76
2022/04/19 02:04:18;;;;;;;8.13;6.18;;;6.10;99.90;;;;;;5112279;28;20498;-76
2022/04/19 02:06:44;;;;;;;8.25;6.22;;;6.10;99.90;;;;;;5113395;28;20059;-76
2022/04/19 02:09:10;;;;;;;8.77;5.95;;;6.10;99.90;;;;;;5112962;28;20031;-76
2022/04/19 02:11:38;;;;;;;8.00;6.10;;;6.10;99.90;;;;;;5112849;28;20441;-76
2022/04/19 02:14:04;;;;;;;7.97;6.30;;;6.00;99.90;;;;;;5113083;28;20415;-76
2022/04/19 02:16:31;;;;;;;9.95;6.18;;;6.00;99.90;;;;;;5112528;28;20047;-76
2022/04/19 02:18:57;;;;;;;9.13;5.63;;;6.00;99.90;;;;;;5113367;28;20092;-76
2022/04/19 02:21:23;;;;;;;10.18;6.45;;;6.00;99.90;;;;;;5113217;28;20376;-76
2022/04/19 02:23:50;;;;;;;10.05;6.10;;;5.90;99.90;;;;;;5095258;28;20040;-76
2022/04/19 02:26:15;;;;;;;8.10;6.22;;;5.90;99.90;;;;;;5115768;28;20520;-76
2022/04/19 02:28:45;;;;;;;7.82;6.35;;;5.90;99.90;;;;;;5115871;28;20063;-76
2022/04/19 02:31:11;;;;;;;9.85;6.03;;;5.90;99.90;;;;;;5116818;28;20054;-76
2022/04/19 02:33:37;;;;;;;10.30;6.40;;;5.80;99.90;;;;;;5117541;28;20044;-76
2022/04/19 02:36:03;;;;;;;10.05;7.22;;;5.80;99.90;;;;;;5116930;28;20036;-76
2022/04/19 02:38:29;;;;;;;9.98;6.85;;;5.80;99.90;;;;;;5116373;28;20055;-76
2022/04/19 02:40:55;;;;;;;17.50;6.57;;;5.80;99.90;;;;;;5117998;28;20027;-76
2022/04/19 02:43:21;;;;;;;10.90;6.90;;;5.70;99.90;;;;;;5116841;28;20433;-76
2022/04/19 02:45:47;;;;;;;10.13;6.80;;;5.70;99.90;;;;;;5117875;28;20396;-76
2022/04/19 02:48:12;;;;;;;8.00;5.72;;;5.80;99.90;;;;;;5116757;28;20475;-76
2022/04/19 02:50:43;;;;;;;9.05;6.20;;;5.70;99.90;;;;;;5116249;28;20507;-76
2022/04/19 02:53:10;;;;;;;11.20;7.35;;;5.70;99.90;;;;;;5117772;28;20054;-76
2022/04/19 02:55:36;;;;;;;8.65;6.45;;;5.70;99.90;;;;;;5117224;28;20105;-76
2022/04/19 02:58:02;;;;;;;9.10;6.63;;;5.70;99.90;;;;;;5115720;28;20036;-76
2022/04/19 03:00:28;;;;;;;7.85;6.50;;;5.60;99.90;;;;;;5116892;28;20118;-76
2022/04/19 03:02:54;;;;;;;10.90;6.88;;;5.60;99.90;;;;;;5117580;28;20075;-76
2022/04/19 03:05:20;;;;;;;9.43;6.28;;;5.60;99.90;;;;;;5115183;28;20047;-76
2022/04/19 03:07:47;;;;;;;10.02;6.68;;;5.60;99.90;;;;;;5099128;28;20101;-76
2022/04/19 03:10:15;;;;;;;8.60;6.57;;;5.60;99.90;;;;;;5096058;28;20078;-76
2022/04/19 03:12:42;;;;;;;8.13;5.55;;;5.60;99.90;;;;;;5096857;28;20044;-76
2022/04/19 03:15:11;;;;;;;10.82;6.28;;;5.50;99.90;;;;;;5116682;28;20368;-76
2022/04/19 03:17:37;;;;;;;14.50;6.68;;;5.50;99.90;;;;;;5116484;27;20043;-76
2022/04/19 03:20:04;;;;;;;9.93;6.20;;;5.50;99.90;;;;;;5116330;28;20104;-76
2022/04/19 03:27:41;;;;;;;12.73;7.30;;;5.50;99.90;;;;;;5116089;28;20071;-76
2022/04/19 03:27:59;;;;;;;8.70;6.82;;;5.40;99.90;;;;;;5115725;28;20047;-76
2022/04/19 03:30:25;;;;;;;11.00;7.18;;;5.30;99.90;;;;;;5116457;28;20403;-76
2022/04/19 03:32:53;;;;;;;12.52;7.45;;;5.30;99.90;;;;;;5116227;28;20475;-76
2022/04/19 03:35:19;;;;;;;13.10;7.35;;;5.30;99.90;;;;;;5116097;28;20075;-76
2022/04/19 03:37:45;;;;;;;13.60;7.60;;;5.30;99.90;;;;;;5115418;28;20505;-76
2022/04/19 03:40:11;;;;;;;14.70;8.70;;;5.30;99.90;;;;;;5114447;28;20052;-76
2022/04/19 03:42:40;;;;;;;11.73;7.78;;;5.30;99.90;;;;;;5116858;28;20042;-76
2022/04/19 03:45:07;;;;;;;14.70;7.63;;;5.30;99.90;;;;;;5116741;27;20060;-76
2022/04/19 03:47:34;;;;;;;11.90;8.07;;;5.30;99.90;;;;;;5093961;28;20051;-76
2022/04/19 03:50:01;;;;;;;10.15;7.75;;;5.30;99.90;;;;;;5108941;28;20127;-76
2022/04/19 03:52:27;;;;;;;12.90;8.10;;;5.30;99.90;;;;;;5096919;28;20096;-76
2022/04/19 03:54:53;;;;;;;11.88;8.40;;;5.20;99.90;;;;;;5116564;28;20046;-76
2022/04/19 03:57:19;;;;;;;10.77;7.75;;;5.10;99.90;;;;;;5116088;28;20047;-76
2022/04/19 03:59:45;;;;;;;12.30;8.43;;;5.10;99.90;;;;;;5114218;28;20116;-76
2022/04/19 04:02:11;;;;;;;13.63;8.57;;;5.20;99.90;;;;;;5114619;28;20044;-76
2022/04/19 04:04:37;;;;;;;13.23;8.25;;;5.20;99.90;;;;;;5116090;28;20048;-76
2022/04/19 04:07:05;;;;;;;14.73;9.27;;;5.20;99.90;;;;;;5115160;28;20050;-76
2022/04/19 04:09:32;;;;;;;11.43;8.15;;;5.20;99.90;;;;;;5114932;28;20046;-76
2022/04/19 04:12:03;;;;;;;13.27;8.30;;;5.20;99.90;;;;;;5114412;28;20051;-76
2022/04/19 04:14:29;;;;;;;18.20;9.18;;;5.30;99.90;;;;;;5115402;27;20039;-76
2022/04/19 04:16:56;;;;;;;13.70;8.60;;;5.30;99.90;;;;;;5115562;28;20047;-76
2022/04/19 04:19:21;;;;;;;12.55;8.10;;;5.30;99.90;;;;;;5115667;28;20509;-76
2022/04/19 04:21:47;;;;;;;18.52;9.18;;;5.30;99.90;;;;;;5113304;28;20039;-76
2022/04/19 04:24:13;;;;;;;15.48;9.05;;;5.40;99.90;;;;;;5115837;28;20036;-76
2022/04/19 04:26:39;;;;;;;13.05;8.55;;;5.40;99.90;;;;;;5097378;28;20051;-76
2022/04/19 04:29:04;;;;;;;13.45;8.85;;;5.50;99.90;;;;;;5113389;28;20038;-76
2022/04/19 04:31:30;;;;;;;19.15;9.85;;;5.50;99.90;;;;;;5114450;28;20138;-76
2022/04/19 04:33:57;;;;;;;14.15;9.07;;;5.50;99.90;;;;;;5097245;28;20043;-76
2022/04/19 04:36:23;;;;;;;12.98;8.95;;;5.60;99.90;;;;;;5113008;28;20047;-76
2022/04/19 04:38:49;;;;;;;16.67;9.48;;;5.60;99.90;;;;;;5113599;28;20055;-75
2022/04/19 04:41:15;;;;;;;15.38;10.77;;;5.60;99.90;;;;;;5113637;28;20043;-76
2022/04/19 04:43:40;;;;;;;20.70;10.35;;;5.70;99.90;;;;;;5114842;28;20043;-76
2022/04/19 04:51:36;;;;;;;14.95;9.38;;;5.80;99.90;;;;;;5114975;28;20060;-76
2022/04/19 04:54:02;;;;;;;15.75;9.82;;;5.80;99.90;;;;;;5113932;28;20040;-76
2022/04/19 04:56:28;;;;;;;15.48;10.40;;;5.80;99.90;;;;;;5095777;28;20047;-76
2022/04/19 04:58:54;;;;;;;19.20;10.80;;;5.80;99.90;;;;;;5114207;28;20045;-76
2022/04/19 05:01:19;;;;;;;14.88;10.00;;;5.80;99.90;;;;;;5115072;28;20047;-76
2022/04/19 05:03:45;;;;;;;16.98;10.23;;;5.80;99.90;;;;;;5095655;28;20443;-76
2022/04/19 05:06:11;;;;;;;15.40;9.85;;;5.80;99.90;;;;;;5114869;28;20039;-76
2022/04/19 05:08:37;;;;;;;15.60;10.25;;;5.90;99.90;;;;;;5114942;28;20079;-76
2022/04/19 05:11:03;;;;;;;14.45;10.25;;;5.90;99.90;;;;;;5112959;28;20080;-76
2022/04/19 05:13:28;;;;;;;18.30;11.40;;;5.90;99.90;;;;;;5114203;28;20043;-76
2022/04/19 05:15:58;;;;;;;18.17;10.60;;;6.00;99.90;;;;;;5113615;28;20054;-76
2022/04/19 05:18:24;;;;;;;13.23;9.50;;;6.00;99.90;;;;;;5095314;28;20054;-76
2022/04/19 05:20:50;;;;;;;16.70;10.52;;;6.10;99.90;;;;;;5114874;28;20040;-76
2022/04/19 05:23:16;;;;;;;15.82;10.02;;;6.10;99.90;;;;;;5113329;28;20112;-76
2022/04/19 05:25:42;;;;;;;16.20;10.98;;;6.20;99.90;;;;;;5112821;28;20036;-76
2022/04/19 05:28:07;;;;;;;18.77;9.18;;;6.20;99.90;;;;;;5113713;28;20066;-76
2022/04/19 05:30:33;;;;;;;16.88;9.35;;;6.30;99.90;;;;;;5114667;28;20043;-76
2022/04/19 05:32:59;;;;;;;13.68;8.95;;;6.40;99.90;;;;;;5112633;28;20043;-76
2022/04/19 05:35:26;;;;;;;16.17;9.98;;;6.50;99.90;;;;;;5113027;28;20048;-76
2022/04/19 05:37:52;;;;;;;15.48;9.88;;;6.60;99.90;;;;;;5112694;28;20051;-76
2022/04/19 05:40:18;;;;;;;13.98;9.13;;;6.70;99.90;;;;;;5114506;28;20066;-76
2022/04/19 05:42:44;;;;;;;15.18;9.55;;;6.80;99.90;;;;;;5114442;28;20487;-77
2022/04/19 05:45:10;;;;;;;14.73;9.07;;;6.90;99.90;;;;;;5113700;28;20461;-76
2022/04/19 05:47:36;;;;;;;13.07;8.18;;;7.00;99.90;;;;;;5114299;28;20550;-76
2022/04/19 05:50:02;;;;;;;15.15;9.27;;;7.10;99.90;;;;;;5111463;27;20130;-77
2022/04/19 05:52:27;;;;;;;16.50;9.02;;;7.20;99.90;;;;;;5104074;28;20119;-76
2022/04/19 05:54:53;;;;;;;10.75;8.38;;;7.30;99.90;;;;;;5114295;28;20130;-77
2022/04/19 05:57:19;;;;;;;14.35;8.73;;;7.40;99.90;;;;;;5112751;28;20048;-76
2022/04/19 05:59:44;;;;;;;14.02;8.88;;;7.50;99.90;;;;;;5113010;28;20047;-77
2022/04/19 06:04:56;;;;;;;15.35;8.30;;;7.70;99.90;;;;;;5112424;28;20081;-77
2022/04/19 06:07:29;;;;;;;11.23;8.32;;;7.80;99.90;;;;;;5113302;28;20043;-76
2022/04/19 06:09:56;;;;;;;14.93;9.18;;;7.90;99.90;;;;;;5096118;28;20066;-76
2022/04/19 06:12:22;;;;;;;13.07;8.43;;;8.00;99.90;;;;;;5096111;28;20473;-76
2022/04/19 06:14:47;;;;;;;15.75;8.38;;;8.10;99.90;;;;;;5113132;28;20117;-77
2022/04/19 06:17:14;;;;;;;18.52;8.88;;;8.10;99.90;;;;;;5113585;28;20044;-77
2022/04/19 06:19:41;;;;;;;12.00;7.70;;;8.20;99.90;;;;;;5110952;28;20035;-77
2022/04/19 06:22:07;;;;;;;15.05;7.70;;;8.30;99.90;;;;;;5111859;28;20058;-76
2022/04/19 06:24:32;;;;;;;17.55;8.30;;;8.40;99.90;;;;;;5113981;28;20036;-77
2022/04/19 06:26:58;;;;;;;12.30;8.27;;;8.50;99.90;;;;;;5095677;28;20130;-77
2022/04/19 06:29:24;;;;;;;11.90;8.35;;;8.50;99.90;;;;;;5111611;28;20047;-77
2022/04/19 06:31:50;;;;;;;16.77;8.50;;;8.60;99.90;;;;;;5112796;28;20043;-77
2022/04/19 06:34:16;;;;;;;14.38;8.70;;;8.70;99.90;;;;;;5111384;28;20441;-76
2022/04/19 06:36:45;;;;;;;10.50;7.95;;;8.70;99.90;;;;;;5095608;28;20082;-77
2022/04/19 06:39:11;;;;;;;12.02;7.85;;;8.80;99.90;;;;;;5113945;28;20118;-76
2022/04/19 06:41:37;;;;;;;14.65;7.97;;;8.90;99.90;;;;;;5111771;28;20040;-77
2022/04/19 06:44:05;;;;;;;11.80;7.07;;;9.10;99.90;;;;;;5113525;28;20043;-77
2022/04/19 06:46:31;;;;;;;10.70;7.32;;;9.20;99.90;;;;;;5112698;28;20043;-77
2022/04/19 06:48:58;;;;;;;11.55;7.72;;;9.30;99.90;;;;;;5112566;28;20118;-77
2022/04/19 06:51:25;;;;;;;14.32;7.63;;;9.40;99.90;;;;;;5113390;28;20083;-77
2022/04/19 06:53:51;;;;;;;14.80;8.18;;;9.50;99.90;;;;;;5112673;28;20100;-77
2022/04/19 06:56:18;;;;;;;12.68;7.93;;;9.60;99.90;;;;;;5094437;28;20039;-77
2022/04/19 06:58:44;;;;;;;14.65;6.65;;;9.80;99.90;;;;;;5113690;28;20048;-77
2022/04/19 07:01:10;;;;;;;13.77;8.15;;;9.90;99.90;;;;;;5113430;28;20475;-77
2022/04/19 07:03:37;;;;;;;12.57;7.90;;;10.00;99.90;;;;;;5111439;28;20082;-77
2022/04/19 07:06:04;;;;;;;14.02;8.63;;;10.10;99.90;;;;;;5113701;28;20039;-77
2022/04/19 07:08:30;;;;;;;8.88;6.53;;;10.30;99.90;;;;;;5112042;28;20047;-77
2022/04/19 07:10:57;;;;;;;12.18;7.97;;;10.40;99.90;;;;;;5094265;28;20044;-77
2022/04/19 07:13:24;;;;;;;11.88;7.70;;;10.50;99.90;;;;;;5116988;27;20051;-77
2022/04/19 07:15:50;;;;;;;14.68;8.35;;;10.60;99.90;;;;;;5116982;28;20054;-77
2022/04/19 07:18:17;;;;;;;10.32;7.65;;;10.70;99.90;;;;;;5114813;28;20048;-77
2022/04/19 07:28:58;;;;;;;14.43;7.73;;;11.10;99.90;;;;;;5115712;28;20052;-77
2022/04/19 07:31:25;;;;;;;13.38;8.02;;;11.20;99.90;;;;;;5114748;28;20046;-77
2022/04/19 07:33:51;;;;;;;13.75;8.38;;;11.30;99.90;;;;;;5115404;28;20128;-77
2022/04/19 07:36:17;;;;;;;14.60;8.43;;;11.40;99.90;;;;;;5115485;28;20102;-77
2022/04/19 07:38:42;;;;;;;13.32;7.97;;;11.50;99.90;;;;;;5114105;28;20035;-78
2022/04/19 07:41:08;;;;;;;13.07;8.02;;;11.50;99.90;;;;;;5115701;28;20072;-77
2022/04/19 07:43:34;;;;;;;15.75;7.88;;;11.60;99.90;;;;;;5116860;28;20046;-77
2022/04/19 07:46:01;;;;;;;11.65;7.53;;;11.70;99.90;;;;;;5114624;28;20032;-77
2022/04/19 07:48:27;;;;;;;11.43;7.70;;;11.80;99.90;;;;;;5116711;28;20114;-77
2022/04/19 07:50:53;;;;;;;12.15;7.22;;;11.90;99.90;;;;;;5116061;28;20051;-78
2022/04/19 07:53:19;;;;;;;13.65;7.70;;;12.00;99.90;;;;;;5114394;28;20463;-77
2022/04/19 07:55:44;;;;;;;11.57;7.05;;;12.10;99.90;;;;;;5132518;27;20075;-77
2022/04/19 07:58:10;;;;;;;12.85;7.20;;;12.30;99.90;;;;;;5098062;28;20052;-77
2022/04/19 08:00:36;;;;;;;9.85;6.10;;;12.30;99.90;;;;;;5114484;28;20035;-77
2022/04/19 08:03:02;;;;;;;11.10;7.03;;;12.40;99.90;;;;;;5116349;28;20059;-77
2022/04/19 08:05:27;;;;;;;10.02;6.32;;;12.50;99.90;;;;;;5116123;28;20395;-77
2022/04/19 08:07:53;;;;;;;9.88;5.30;;;12.60;99.90;;;;;;5114996;28;20104;-77
2022/04/19 08:10:20;;;;;;;8.65;4.90;;;12.70;99.90;;;;;;5116118;28;20050;-77
2022/04/19 08:12:46;;;;;;;7.50;4.53;;;12.80;99.90;;;;;;5115445;28;20035;-77
2022/04/19 08:15:13;;;;;;;12.30;4.95;;;13.00;99.90;;;;;;5116315;28;20402;-77
2022/04/19 08:17:39;;;;;;;14.98;5.72;;;13.10;99.90;;;;;;5097863;28;20040;-77
2022/04/19 08:20:05;;;;;;;9.55;5.05;;;13.20;99.90;;;;;;5115052;28;20044;-77
2022/04/19 08:22:32;;;;;;;6.40;4.80;;;13.30;99.90;;;;;;5115808;28;20108;-76
2022/04/19 08:24:58;;;;;;;7.20;4.60;;;13.40;99.90;;;;;;5113875;28;20039;-77
2022/04/19 08:27:23;;;;;;;7.50;3.80;;;13.50;99.90;;;;;;5113776;28;20059;-77
2022/04/19 08:29:49;;;;;;;6.18;3.60;;;13.60;99.90;;;;;;5116013;28;20040;-78
2022/04/19 08:32:15;;;;;;;4.80;3.40;;;13.80;99.90;;;;;;5114878;28;20397;-77
2022/04/19 08:34:42;;;;;;;6.90;3.83;;;13.90;99.90;;;;;;5113654;28;20375;-76
2022/04/19 08:37:09;;;;;;;8.95;4.28;;;14.00;99.90;;;;;;5115511;28;20130;-77
2022/04/19 08:39:36;;;;;;;6.10;3.75;;;14.10;99.90;;;;;;5114593;28;20120;-77
2022/04/19 08:42:06;;;;;;;7.10;3.67;;;14.20;99.90;;;;;;5113754;28;20126;-76
2022/04/19 08:44:36;;;;;;;9.63;4.45;;;14.30;99.90;;;;;;5115699;28;20040;-76
2022/04/19 08:47:06;;;;;;;6.50;4.20;;;14.40;99.90;;;;;;5113545;28;20094;-77
2022/04/19 08:49:41;;;;;;;7.40;4.03;;;14.50;99.90;;;;;;5113563;28;20092;-77
2022/04/19 08:52:08;;;;;;;6.30;3.95;;;14.60;99.90;;;;;;5115454;28;20051;-77
2022/04/19 08:57:31;;;;;;;6.82;3.30;;;14.70;99.90;;;;;;5114129;28;20051;-79
2022/04/19 09:00:04;;;;;;;7.32;4.60;;;14.70;99.90;;;;;;5114066;28;20082;-76
2022/04/19 09:02:32;;;;;;;8.85;4.18;;;14.70;99.80;;;;;;5095874;28;20108;-76
2022/04/19 09:05:16;;;;;;;9.35;4.55;;;14.70;99.90;;;;;;5115237;28;20115;-76
2022/04/19 09:07:44;;;;;;;5.32;3.70;;;14.80;99.90;;;;;;5115152;28;20110;-77
2022/04/19 09:10:16;;;;;;;9.77;3.80;;;14.80;99.90;;;;;;5096079;28;20055;-77
2022/04/19 09:12:55;;;;;;;7.63;4.20;;;14.80;99.70;;;;;;5114943;28;20036;-77
2022/04/19 09:15:21;;;;;;;7.15;4.05;;;14.90;99.90;;;;;;5115071;28;20050;-77
2022/04/19 09:17:49;;;;;;;6.03;4.53;;;14.90;99.90;;;;;;5113809;28;20039;-77
2022/04/19 09:20:15;;;;;;;5.80;4.20;;;15.00;99.90;;;;;;5114317;28;20075;-77
2022/04/19 09:22:45;;;;;;;19.65;4.05;;;15.00;99.90;;;;;;5114931;28;20074;-77
2022/04/19 09:25:21;;;;;;;4.00;2.63;;;15.10;98.70;;;;;;5112629;28;20075;-79
2022/04/19 09:27:48;;;;;;;8.18;2.45;;;15.10;96.60;;;;;;5113524;28;20043;-77
2022/04/19 09:30:19;;;;;;;4.90;2.13;;;15.00;96.30;;;;;;5113758;28;20062;-77
2022/04/19 09:33:10;;;;;;;2.17;1.27;;;15.00;95.30;;;;;;5114695;28;20047;-78
2022/04/19 09:35:43;;;;;;;3.63;1.38;;;15.10;92.10;;;;;;5112924;28;20047;-77
2022/04/19 09:38:10;;;;;;;2.47;1.50;;;15.10;91.50;;;;;;5112668;28;20051;-77
2022/04/19 09:40:44;;;;;;;2.20;1.13;;;15.00;89.30;;;;;;5114506;28;20092;-78
2022/04/19 09:43:12;;;;;;;2.53;1.60;;;15.10;85.50;;;;;;5114563;28;20141;-79
2022/04/19 09:45:50;;;;;;;5.88;1.48;;;15.10;84.50;;;;;;5112186;28;20140;-78
2022/04/19 09:48:21;;;;;;;2.53;1.20;;;15.20;81.30;;;;;;5113085;28;20044;-77
2022/04/19 09:51:02;;;;;;;2.50;1.42;;;15.40;79.20;;;;;;5114106;28;20406;-78
2022/04/19 09:53:43;;;;;;;1.35;1.20;;;15.40;78.30;;;;;;5114056;28;20047;-77
2022/04/19 09:56:13;;;;;;;2.35;1.65;;;15.50;77.00;;;;;;5114294;28;20046;-77
2022/04/19 09:58:41;;;;;;;2.33;1.40;;;15.70;78.10;;;;;;5112195;28;20092;-77
2022/04/19 10:01:07;;;;;;;3.65;1.90;;;15.80;76.80;;;;;;5113169;28;20505;-79
2022/04/19 10:09:04;;;;;;;2.03;1.17;;;16.20;75.40;;;;;;5114012;28;19920;-78
2022/04/19 10:11:30;;;;;;;4.18;1.50;;;16.20;73.20;;;;;;5112808;28;20103;-77
2022/04/19 10:13:57;;;;;;;5.25;1.40;;;16.30;71.10;;;;;;5113318;28;20130;-77
2022/04/19 10:16:24;;;;;;;2.95;1.60;;;16.50;72.20;;;;;;5113844;28;20038;-77
2022/04/19 10:18:50;;;;;;;3.55;1.35;;;16.70;71.50;;;;;;5112778;28;20055;-78
2022/04/19 10:21:23;;;;;;;2.22;1.38;;;16.90;71.90;;;;;;5112131;28;20093;-78
2022/04/19 10:23:49;;;;;;;4.82;1.48;;;17.10;69.00;;;;;;5112701;28;20058;-77
2022/04/19 10:26:23;;;;;;;10.63;2.88;;;17.20;69.10;;;;;;5113260;28;20036;-77
2022/04/19 10:28:51;;;;;;;1.20;0.70;;;17.30;68.20;;;;;;5112983;28;20047;-77
2022/04/19 10:31:26;;;;;;;4.25;1.00;;;17.30;67.00;;;;;;5112857;28;20444;-77
2022/04/19 10:33:52;;;;;;;4.38;1.42;;;17.40;66.70;;;;;;5111035;28;20043;-77
2022/04/19 10:36:23;;;;;;;2.95;1.20;;;17.50;68.30;;;;;;5112617;28;20371;-77
2022/04/19 10:39:16;;;;;;;1.95;1.02;;;17.60;66.80;;;;;;5113884;28;20036;-77
2022/04/19 10:41:47;;;;;;;1.65;1.10;;;17.70;64.90;;;;;;5112807;28;20051;-78
2022/04/19 10:44:28;;;;;;;2.03;1.20;;;17.70;64.00;;;;;;5112334;28;20055;-77
2022/04/19 10:47:12;;;;;;;2.67;1.25;;;17.80;66.10;;;;;;5113866;28;20044;-77
2022/04/19 10:50:05;;;;;;;2.90;1.13;;;17.80;65.40;;;;;;5098318;28;20050;-77
2022/04/19 10:52:37;;;;;;;1.27;1.10;;;17.90;64.40;;;;;;5117971;28;20048;-79
2022/04/19 10:55:23;;;;;;;2.45;1.17;;;17.90;63.60;;;;;;5098463;28;20043;-79
2022/04/19 10:58:16;;;;;;;3.10;0.98;;;18.00;64.10;;;;;;5115707;28;20054;-77
2022/04/19 11:00:41;;;;;;;1.25;0.80;;;18.00;63.10;;;;;;5116116;28;20403;-78
2022/04/19 11:03:13;;;;;;;2.17;0.90;;;18.10;63.80;;;;;;5096696;28;20039;-77
2022/04/19 11:05:57;;;;;;;2.05;1.27;;;18.10;63.40;;;;;;5115867;28;20035;-77
2022/04/19 11:08:25;;;;;;;2.95;1.40;;;18.10;63.60;;;;;;5114545;28;20466;-77
2022/04/19 11:11:04;;;;;;;5.55;1.52;;;18.10;63.90;;;;;;5115858;28;20044;-77
2022/04/19 11:13:39;;;;;;;1.42;1.13;;;18.00;65.30;;;;;;5115429;28;20518;-78
2022/04/19 11:16:05;;;;;;;4.93;1.67;;;18.10;66.30;;;;;;5115172;28;20044;-77
2022/04/19 11:18:57;;;;;;;3.70;1.30;;;18.20;66.40;;;;;;5115800;28;20576;-77
2022/04/19 11:22:01;;;;;;;2.38;1.27;;;18.40;66.10;;;;;;5116920;28;20118;-77
2022/04/19 11:25:01;;;;;;;4.68;1.55;;;18.50;65.00;;;;;;5033310;28;20041;-77
2022/04/19 11:28:02;;;;;;;2.95;1.60;;;18.60;66.50;;;;;;5010150;28;20034;-78
2022/04/19 11:30:29;;;;;;;7.13;1.80;;;18.60;65.70;;;;;;4994773;28;20429;-79
2022/04/19 11:32:57;;;;;;;2.97;1.75;;;18.50;66.60;;;;;;5083756;28;20051;-77
2022/04/19 11:35:26;;;;;;;3.42;1.63;;;18.40;66.00;;;;;;5094733;28;20419;-78
2022/04/19 11:37:51;;;;;;;4.03;1.40;;;18.50;65.70;;;;;;5113905;28;20046;-77
2022/04/19 11:48:47;;;;;;;3.38;1.75;;;18.40;64.70;;;;;;5116478;28;20402;-78
2022/04/19 11:51:16;;;;;;;4.30;1.80;;;18.40;64.20;;;;;;5115178;28;20055;-78
2022/04/19 11:53:43;;;;;;;5.88;1.50;;;18.40;63.60;;;;;;5115155;28;20043;-80
2022/04/19 11:56:09;;;;;;;3.92;1.75;;;18.40;63.00;;;;;;5114834;28;20043;-77
2022/04/19 11:58:39;;;;;;;4.03;1.73;;;18.40;63.80;;;;;;5112878;28;20056;-77
2022/04/19 12:01:10;;;;;;;2.72;1.55;;;18.50;64.50;;;;;;5098540;28;20118;-78
2022/04/19 12:03:39;;;;;;;7.35;1.88;;;18.50;63.70;;;;;;5114803;28;20436;-76
2022/04/19 12:06:15;;;;;;;1.85;1.70;;;18.60;63.80;;;;;;5113927;28;20519;-77
2022/04/19 12:08:49;;;;;;;3.15;1.95;;;18.80;64.00;;;;;;5114736;28;20085;-77
2022/04/19 12:11:19;;;;;;;3.70;2.08;;;18.70;62.00;;;;;;5114463;28;20439;-77
2022/04/19 12:13:47;;;;;;;4.35;2.10;;;18.60;64.10;;;;;;5113797;28;20062;-77
2022/04/19 12:16:39;;;;;;;5.38;2.40;;;18.70;65.00;;;;;;5115704;28;20105;-77
2022/04/19 12:19:08;;;;;;;3.58;1.65;;;18.80;64.10;;;;;;5113910;28;20059;-77
2022/04/19 12:21:46;;;;;;;2.70;1.42;;;18.80;64.20;;;;;;5114632;28;20135;-75
2022/04/19 12:24:32;;;;;;;3.83;2.15;;;18.90;63.30;;;;;;5124840;27;20062;-77
2022/04/19 12:27:05;;;;;;;2.92;1.95;;;19.10;62.60;;;;;;5113525;28;20075;-77
2022/04/19 12:29:31;;;;;;;2.83;2.00;;;19.00;61.40;;;;;;5115586;28;20407;-77
2022/04/19 12:31:58;;;;;;;4.85;2.58;;;18.90;62.20;;;;;;5113991;28;20055;-78
2022/04/19 12:34:38;;;;;;;2.10;1.60;;;18.90;61.40;;;;;;5096258;28;20060;-77
2022/04/19 12:37:08;;;;;;;3.00;2.05;;;19.00;62.00;;;;;;5114086;28;20181;-77
2022/04/19 12:39:34;;;;;;;4.25;2.00;;;18.90;62.80;;;;;;5115504;28;20043;-77
2022/04/19 12:42:09;;;;;;;5.20;2.15;;;18.80;62.20;;;;;;5114175;28;20173;-76
2022/04/19 12:44:35;;;;;;;;;;;18.80;61.90;;;;;;5114998;28;20495;-78
2022/04/19 12:47:09;;;;;;;3.10;1.88;;;18.80;63.50;;;;;;5114774;28;19927;-77
2022/04/19 12:49:44;;;;;;;6.03;2.20;;;18.80;63.30;;;;;;5113518;28;20054;-78
2022/04/19 12:52:10;;;;;;;7.57;2.55;;;18.90;61.80;;;;;;5113651;28;20044;-77
2022/04/19 12:54:40;;;;;;;2.30;1.92;;;18.90;63.00;;;;;;5114389;28;20035;-78
2022/04/19 12:57:14;;;;;;;4.35;1.90;;;18.80;61.50;;;;;;5113469;28;20055;-78
2022/04/19 12:59:44;;;;;;;5.22;1.80;;;18.70;61.80;;;;;;5093469;28;20054;-77
2022/04/19 13:02:15;;;;;;;3.95;1.80;;;18.70;62.80;;;;;;5108486;28;20039;-78
2022/04/19 13:04:42;;;;;;;3.55;1.60;;;18.80;62.90;;;;;;5115144;28;20039;-77
2022/04/19 13:12:40;;;;;;;3.55;1.27;;;18.50;60.90;;;;;;5114258;28;20058;-78
2022/04/19 13:15:06;;;;;;;1.52;1.33;;;18.40;60.70;;;;;;5113659;28;20040;-77
2022/04/19 13:17:35;;;;;;;2.03;1.33;;;18.30;59.60;;;;;;5113480;28;20143;-77
2022/04/19 13:20:02;;;;;;;4.03;1.67;;;18.30;59.70;;;;;;5113152;28;20474;-78
2022/04/19 13:22:28;;;;;;;3.92;2.10;;;18.30;60.00;;;;;;5112764;28;20051;-79
2022/04/19 13:24:54;;;;;;;4.55;1.80;;;18.30;61.30;;;;;;5114264;28;20456;-77
2022/04/19 13:27:21;;;;;;;1.70;1.38;;;18.20;62.30;;;;;;5113288;28;20475;-78
2022/04/19 13:29:49;;;;;;;4.15;1.77;;;18.30;62.60;;;;;;5113441;28;20055;-78
2022/04/19 13:32:15;;;;;;;2.53;1.35;;;18.30;61.50;;;;;;5114290;28;20047;-77
2022/04/19 13:34:42;;;;;;;2.05;1.45;;;18.40;61.00;;;;;;5113689;28;20116;-79
2022/04/19 13:37:08;;;;;;;3.38;1.65;;;18.40;60.00;;;;;;5112139;28;20453;-77
2022/04/19 13:39:34;;;;;;;3.53;1.40;;;18.40;61.50;;;;;;5096409;28;20040;-78